createdAt,value
2023-05-17T00:00:09.882Z,102470.69
2023-05-17T00:02:12.045Z,102475.47
2023-05-17T00:04:14.103Z,102477.41
2023-05-17T00:06:16.219Z,102479.91
2023-05-17T00:08:18.352Z,102485.94
2023-05-17T00:10:20.433Z,102481.44
2023-05-17T00:12:22.482Z,102484.84
2023-05-17T00:14:24.496Z,102488.03
2023-05-17T00:16:26.640Z,102493.31
2023-05-17T00:18:28.837Z,102492.34
2023-05-17T00:20:31.091Z,102490.56
2023-05-17T00:22:33.138Z,102490.63
2023-05-17T00:24:35.177Z,102486.16
2023-05-17T00:26:37.231Z,102488.44
2023-05-17T00:28:39.198Z,102479.06
2023-05-17T00:30:41.894Z,102481.56
2023-05-17T00:32:45.885Z,102483.00
2023-05-17T00:34:48.102Z,102483.84
2023-05-17T00:36:50.112Z,102480.97
2023-05-17T00:38:52.155Z,102482.59
2023-05-17T00:40:54.464Z,102474.19
2023-05-17T00:42:56.518Z,102477.41
2023-05-17T00:44:58.519Z,102481.72
2023-05-17T00:47:00.494Z,102475.84
2023-05-17T00:49:02.501Z,102476.41
2023-05-17T00:51:04.778Z,102478.34
2023-05-17T00:53:07.117Z,102471.50
2023-05-17T00:55:09.629Z,102480.66
2023-05-17T00:57:11.812Z,102480.81
2023-05-17T00:59:14.565Z,102479.78
2023-05-17T01:01:16.887Z,102483.16
2023-05-17T01:03:19.315Z,102487.22
2023-05-17T01:05:21.421Z,102484.97
2023-05-17T01:07:23.714Z,102487.41
2023-05-17T01:09:25.772Z,102491.63
2023-05-17T01:11:34.040Z,102491.47
2023-05-17T01:13:42.512Z,102487.03
2023-05-17T01:15:53.745Z,102484.16
2023-05-17T01:18:00.515Z,102492.13
2023-05-17T01:20:12.874Z,102483.38
2023-05-17T01:22:18.536Z,102493.91
2023-05-17T01:24:22.282Z,102479.66
2023-05-17T01:26:34.891Z,102484.47
2023-05-17T01:28:39.158Z,102483.03
2023-05-17T01:30:42.407Z,102488.69
2023-05-17T01:32:45.605Z,102485.81
2023-05-17T01:34:47.720Z,102485.19
2023-05-17T01:36:49.779Z,102492.13
2023-05-17T01:38:51.899Z,102486.78
2023-05-17T01:41:00.197Z,102494.34
2023-05-17T01:43:10.679Z,102492.50
2023-05-17T01:45:19.587Z,102492.38
2023-05-17T01:47:34.884Z,102491.56
2023-05-17T01:49:40.427Z,102497.22
2023-05-17T01:51:48.339Z,102492.88
2023-05-17T01:53:58.484Z,102491.91
2023-05-17T01:56:06.424Z,102489.84
2023-05-17T01:58:11.070Z,102488.13
2023-05-17T02:00:14.836Z,102486.59
2023-05-17T02:02:16.947Z,102494.63
2023-05-17T02:04:19.947Z,102492.72
2023-05-17T02:06:22.049Z,102494.34
2023-05-17T02:08:24.136Z,102500.44
2023-05-17T02:10:26.137Z,102493.31
2023-05-17T02:12:28.313Z,102503.63
2023-05-17T02:14:30.315Z,102513.09
2023-05-17T02:16:32.326Z,102519.78
2023-05-17T02:18:36.087Z,102519.06
2023-05-17T02:20:38.716Z,102514.72
2023-05-17T02:22:40.929Z,102517.34
2023-05-17T02:24:43.312Z,102512.97
2023-05-17T02:26:46.330Z,102519.72
2023-05-17T02:28:48.681Z,102520.56
2023-05-17T02:30:51.281Z,102517.72
2023-05-17T02:32:53.382Z,102517.75
2023-05-17T02:34:56.014Z,102521.19
2023-05-17T02:36:58.100Z,102526.19
2023-05-17T02:39:00.137Z,102522.88
2023-05-17T02:41:02.153Z,102528.25
2023-05-17T02:43:04.142Z,102530.84
2023-05-17T02:45:06.958Z,102521.94
2023-05-17T02:47:09.028Z,102514.03
2023-05-17T02:49:11.099Z,102518.31
2023-05-17T02:51:13.155Z,102519.03
2023-05-17T02:53:15.179Z,102516.84
2023-05-17T02:55:17.258Z,102516.28
2023-05-17T02:57:19.320Z,102522.91
2023-05-17T02:59:21.353Z,102519.56
2023-05-17T03:01:23.940Z,102526.97
2023-05-17T03:03:26.099Z,102524.81
2023-05-17T03:05:28.510Z,102526.84
2023-05-17T03:07:30.953Z,102530.03
2023-05-17T03:09:33.097Z,102526.63
2023-05-17T03:11:35.121Z,102527.31
2023-05-17T03:13:37.262Z,102536.59
2023-05-17T03:15:39.332Z,102539.34
2023-05-17T03:17:41.561Z,102541.19
2023-05-17T03:19:43.689Z,102537.53
2023-05-17T03:21:45.812Z,102534.06
2023-05-17T03:23:48.251Z,102535.59
2023-05-17T03:25:50.272Z,102538.47
2023-05-17T03:27:52.356Z,102538.63
2023-05-17T03:29:54.491Z,102537.16
2023-05-17T03:31:56.524Z,102531.53
2023-05-17T03:33:58.690Z,102543.41
2023-05-17T03:36:00.969Z,102535.78
2023-05-17T03:38:02.949Z,102542.31
2023-05-17T03:40:05.683Z,102543.34
2023-05-17T03:42:07.768Z,102545.59
2023-05-17T03:44:09.889Z,102554.13
2023-05-17T03:46:12.024Z,102546.53
2023-05-17T03:48:14.034Z,102548.38
2023-05-17T03:50:16.191Z,102549.94
2023-05-17T03:52:18.176Z,102555.81
2023-05-17T03:54:20.199Z,102553.16
2023-05-17T03:56:22.373Z,102559.84
2023-05-17T03:58:24.452Z,102560.59
2023-05-17T04:00:26.547Z,102564.88
2023-05-17T04:02:28.535Z,102567.47
2023-05-17T04:04:30.955Z,102565.06
2023-05-17T04:06:33.083Z,102565.13
2023-05-17T04:08:36.197Z,102566.72
2023-05-17T04:10:42.135Z,102566.06
2023-05-17T04:12:44.243Z,102572.00
2023-05-17T04:14:46.262Z,102570.03
2023-05-17T04:16:48.301Z,102566.75
2023-05-17T04:18:53.128Z,102572.88
2023-05-17T04:20:56.353Z,102571.00
2023-05-17T04:22:58.375Z,102576.97
2023-05-17T04:25:00.513Z,102578.69
2023-05-17T04:27:05.436Z,102585.72
2023-05-17T04:29:07.580Z,102586.16
2023-05-17T04:31:09.753Z,102583.44
2023-05-17T04:33:14.083Z,102579.03
2023-05-17T04:35:16.561Z,102581.69
2023-05-17T04:37:18.537Z,102579.16
2023-05-17T04:39:20.956Z,102585.22
2023-05-17T04:41:22.913Z,102591.84
2023-05-17T04:43:24.903Z,102593.78
2023-05-17T04:45:27.707Z,102594.59
2023-05-17T04:47:30.146Z,102600.75
2023-05-17T04:49:32.326Z,102597.84
2023-05-17T04:51:34.274Z,102601.06
2023-05-17T04:53:36.314Z,102597.66
2023-05-17T04:55:38.277Z,102603.81
2023-05-17T04:57:40.414Z,102605.06
2023-05-17T04:59:42.389Z,102601.94
2023-05-17T05:01:44.353Z,102605.22
2023-05-17T05:03:46.452Z,102611.03
2023-05-17T05:05:48.673Z,102609.56
2023-05-17T05:07:50.715Z,102618.09
2023-05-17T05:09:52.698Z,102625.78
2023-05-17T05:11:54.701Z,102621.72
2023-05-17T05:13:56.673Z,102621.50
2023-05-17T05:15:58.748Z,102621.31
2023-05-17T05:18:00.966Z,102622.47
2023-05-17T05:20:03.270Z,102623.94
2023-05-17T05:22:05.659Z,102627.28
2023-05-17T05:24:08.630Z,102622.31
2023-05-17T05:26:10.706Z,102626.75
2023-05-17T05:28:12.755Z,102622.19
2023-05-17T05:30:22.227Z,102630.34
2023-05-17T05:32:24.602Z,102626.66
2023-05-17T05:34:28.732Z,102629.25
2023-05-17T05:36:31.126Z,102615.78
2023-05-17T05:38:33.143Z,102613.34
2023-05-17T05:40:35.258Z,102627.06
2023-05-17T05:42:37.573Z,102630.41
2023-05-17T05:44:39.678Z,102624.28
2023-05-17T05:46:41.686Z,102637.31
2023-05-17T05:48:45.036Z,102641.84
2023-05-17T05:50:47.127Z,102635.28
2023-05-17T05:52:49.168Z,102645.78
2023-05-17T05:54:51.235Z,102645.00
2023-05-17T05:56:53.895Z,102656.41
2023-05-17T05:58:57.850Z,102656.16
2023-05-17T06:01:00.486Z,102652.81
2023-05-17T06:03:02.691Z,102651.06
2023-05-17T06:05:06.406Z,102652.75
2023-05-17T06:07:08.604Z,102658.56
2023-05-17T06:09:12.535Z,102662.56
2023-05-17T06:11:15.056Z,102655.06
2023-05-17T06:13:17.162Z,102650.03
2023-05-17T06:15:19.284Z,102654.00
2023-05-17T06:17:21.786Z,102661.03
2023-05-17T06:19:24.124Z,102653.50
2023-05-17T06:21:26.316Z,102656.09
2023-05-17T06:23:28.481Z,102657.44
2023-05-17T06:25:30.787Z,102657.84
2023-05-17T06:27:34.020Z,102657.03
2023-05-17T06:29:36.896Z,102655.34
2023-05-17T06:31:39.145Z,102658.09
2023-05-17T06:33:41.344Z,102661.09
2023-05-17T06:35:55.313Z,102651.13
2023-05-17T06:37:58.794Z,102654.56
2023-05-17T06:40:15.047Z,102656.56
2023-05-17T06:42:18.271Z,102654.56
2023-05-17T06:44:20.548Z,102655.72
2023-05-17T06:46:22.713Z,102660.19
2023-05-17T06:48:24.976Z,102663.72
2023-05-17T06:50:28.846Z,102670.00
2023-05-17T06:52:31.328Z,102671.06
2023-05-17T06:54:33.416Z,102669.41
2023-05-17T06:56:35.699Z,102679.22
2023-05-17T06:58:37.940Z,102681.66
2023-05-17T07:00:40.080Z,102681.72
2023-05-17T07:02:42.844Z,102690.34
2023-05-17T07:04:45.151Z,102687.59
2023-05-17T07:06:47.633Z,102680.72
2023-05-17T07:08:49.900Z,102677.38
2023-05-17T07:10:52.815Z,102680.97
2023-05-17T07:12:55.062Z,102679.75
2023-05-17T07:14:57.344Z,102681.38
2023-05-17T07:16:59.764Z,102681.13
2023-05-17T07:19:03.504Z,102679.72
2023-05-17T07:21:05.749Z,102689.31
2023-05-17T07:23:07.989Z,102680.91
2023-05-17T07:25:10.969Z,102680.81
2023-05-17T07:27:13.134Z,102679.03
2023-05-17T07:29:15.449Z,102688.72
2023-05-17T07:31:18.464Z,102680.81
2023-05-17T07:33:20.754Z,102676.13
2023-05-17T07:35:22.940Z,102684.09
2023-05-17T07:37:25.350Z,102684.72
2023-05-17T07:39:27.739Z,102689.88
2023-05-17T07:41:30.032Z,102689.34
2023-05-17T07:43:32.254Z,102692.94
2023-05-17T07:45:34.617Z,102691.63
2023-05-17T07:47:36.941Z,102694.59
2023-05-17T07:49:39.656Z,102696.09
2023-05-17T07:51:41.966Z,102698.72
2023-05-17T07:53:44.344Z,102692.94
2023-05-17T07:55:47.965Z,102698.66
2023-05-17T07:57:54.917Z,102696.00
2023-05-17T07:59:57.038Z,102692.94
2023-05-17T08:01:59.161Z,102688.72
2023-05-17T08:04:07.798Z,102691.44
2023-05-17T08:06:10.002Z,102688.31
2023-05-17T08:08:12.237Z,102693.63
2023-05-17T08:10:14.623Z,102683.63
2023-05-17T08:12:16.858Z,102683.06
2023-05-17T08:14:23.392Z,102694.28
2023-05-17T08:16:26.674Z,102692.53
2023-05-17T08:18:29.046Z,102696.09
2023-05-17T08:20:31.383Z,102690.47
2023-05-17T08:22:33.524Z,102698.13
2023-05-17T08:24:41.654Z,102687.88
2023-05-17T08:26:43.860Z,102695.66
2023-05-17T08:28:47.327Z,102695.94
2023-05-17T08:30:49.808Z,102696.47
2023-05-17T08:32:52.447Z,102693.41
2023-05-17T08:34:55.227Z,102690.59
2023-05-17T08:36:57.712Z,102693.50
2023-05-17T08:39:00.019Z,102688.94
2023-05-17T08:41:03.403Z,102694.00
2023-05-17T08:43:06.844Z,102695.81
2023-05-17T08:45:10.628Z,102690.16
2023-05-17T08:47:14.848Z,102691.13
2023-05-17T08:49:17.567Z,102693.81
2023-05-17T08:51:21.121Z,102688.66
2023-05-17T08:53:24.451Z,102686.09
2023-05-17T08:55:30.929Z,102678.59
2023-05-17T08:57:34.776Z,102676.19
2023-05-17T08:59:39.599Z,102685.44
2023-05-17T09:01:44.089Z,102672.59
2023-05-17T09:03:49.923Z,102675.81
2023-05-17T09:05:54.795Z,102675.34
2023-05-17T09:07:58.152Z,102674.28
2023-05-17T09:10:00.776Z,102679.84
2023-05-17T09:12:04.580Z,102674.09
2023-05-17T09:14:07.718Z,102671.84
2023-05-17T09:16:13.930Z,102672.22
2023-05-17T09:18:19.347Z,102672.59
2023-05-17T09:20:25.160Z,102673.13
2023-05-17T09:22:27.358Z,102669.81
2023-05-17T09:24:58.776Z,102662.63
2023-05-17T09:27:10.212Z,102660.28
2023-05-17T09:29:18.585Z,102660.97
2023-05-17T09:31:29.300Z,102656.81
2023-05-17T09:33:31.185Z,102651.38
2023-05-17T09:35:35.025Z,102648.22
2023-05-17T09:37:47.025Z,102646.69
2023-05-17T09:39:50.187Z,102643.50
2023-05-17T09:41:57.909Z,102643.25
2023-05-17T09:44:16.053Z,102639.78
2023-05-17T09:46:20.588Z,102643.56
2023-05-17T09:48:22.797Z,102643.06
2023-05-17T09:50:26.259Z,102640.69
2023-05-17T09:52:32.226Z,102641.56
2023-05-17T09:55:01.743Z,102639.44
2023-05-17T09:57:08.004Z,102637.97
2023-05-17T09:59:13.316Z,102643.38
2023-05-17T10:01:17.314Z,102638.19
2023-05-17T10:03:19.986Z,102635.81
2023-05-17T10:05:22.831Z,102640.56
2023-05-17T10:07:28.041Z,102630.53
2023-05-17T10:09:35.867Z,102630.91
2023-05-17T10:11:39.548Z,102639.75
2023-05-17T10:13:47.741Z,102635.00
2023-05-17T10:15:51.062Z,102625.41
2023-05-17T10:17:54.982Z,102635.97
2023-05-17T10:19:59.333Z,102635.22
2023-05-17T10:24:12.569Z,102616.56
2023-05-17T10:26:16.487Z,102621.94
2023-05-17T10:28:20.273Z,102629.00
2023-05-17T10:30:23.155Z,102618.59
2023-05-17T10:32:29.152Z,102620.38
2023-05-17T10:34:32.261Z,102619.19
2023-05-17T10:36:34.730Z,102617.00
2023-05-17T10:38:42.650Z,102613.03
2023-05-17T10:40:47.641Z,102603.63
2023-05-17T10:42:53.308Z,102604.75
2023-05-17T10:44:55.526Z,102597.94
2023-05-17T10:47:00.525Z,102607.66
2023-05-17T10:49:03.996Z,102599.63
2023-05-17T10:51:07.747Z,102609.13
2023-05-17T10:53:11.580Z,102605.72
2023-05-17T10:55:13.998Z,102600.97
2023-05-17T10:57:21.145Z,102602.72
2023-05-17T10:59:27.121Z,102597.66
2023-05-17T11:01:35.443Z,102593.31
2023-05-17T11:03:40.322Z,102586.34
2023-05-17T11:05:45.007Z,102585.88
2023-05-17T11:07:49.823Z,102581.41
2023-05-17T11:09:56.961Z,102588.56
2023-05-17T11:12:05.686Z,102587.84
2023-05-17T11:14:16.907Z,102597.44
2023-05-17T11:16:22.973Z,102597.16
2023-05-17T11:18:34.275Z,102595.50
2023-05-17T11:20:39.047Z,102591.78
2023-05-17T11:22:43.779Z,102589.97
2023-05-17T11:24:51.508Z,102586.28
2023-05-17T11:26:56.423Z,102588.69
2023-05-17T11:29:03.090Z,102600.72
2023-05-17T11:31:05.635Z,102585.84
2023-05-17T11:33:20.612Z,102582.56
2023-05-17T11:35:30.167Z,102584.25
2023-05-17T11:37:32.828Z,102577.31
2023-05-17T11:39:34.989Z,102577.84
2023-05-17T11:41:41.815Z,102583.06
2023-05-17T11:44:01.929Z,102579.47
2023-05-17T11:46:06.977Z,102576.00
2023-05-17T11:48:09.785Z,102580.22
2023-05-17T11:50:14.827Z,102582.94
2023-05-17T11:52:17.429Z,102586.03
2023-05-17T11:54:23.708Z,102581.75
2023-05-17T11:56:39.394Z,102574.66
2023-05-17T11:58:45.765Z,102580.66
2023-05-17T12:00:54.249Z,102583.97
2023-05-17T12:02:56.387Z,102579.75
2023-05-17T12:04:59.217Z,102579.75
2023-05-17T12:07:01.855Z,102572.81
2023-05-17T12:09:06.423Z,102572.09
2023-05-17T12:11:12.711Z,102579.84
2023-05-17T12:13:14.846Z,102571.16
2023-05-17T12:15:19.650Z,102574.84
2023-05-17T12:17:28.279Z,102573.06
2023-05-17T12:19:32.933Z,102572.28
2023-05-17T12:21:35.544Z,102574.97
2023-05-17T12:23:42.028Z,102573.25
2023-05-17T12:25:44.293Z,102572.50
2023-05-17T12:27:47.001Z,102562.03
2023-05-17T12:29:49.258Z,102560.50
2023-05-17T12:31:54.123Z,102564.09
2023-05-17T12:36:15.841Z,102566.81
2023-05-17T12:38:19.959Z,102562.25
2023-05-17T12:40:22.214Z,102560.50
2023-05-17T12:42:24.459Z,102562.56
2023-05-17T12:44:34.834Z,102558.88
2023-05-17T12:46:37.377Z,102562.94
2023-05-17T12:48:44.392Z,102558.84
2023-05-17T12:50:49.284Z,102562.47
2023-05-17T12:52:51.804Z,102554.50
2023-05-17T12:54:54.007Z,102556.25
2023-05-17T12:56:56.809Z,102566.59
2023-05-17T12:59:05.159Z,102559.84
2023-05-17T13:01:11.721Z,102561.56
2023-05-17T13:03:15.022Z,102565.91
2023-05-17T13:05:21.909Z,102565.03
2023-05-17T13:07:25.577Z,102563.03
2023-05-17T13:09:31.327Z,102560.81
2023-05-17T13:11:41.299Z,102561.72
2023-05-17T13:13:43.952Z,102550.13
2023-05-17T13:15:48.127Z,102553.75
2023-05-17T13:17:50.960Z,102555.28
2023-05-17T13:19:54.506Z,102547.50
2023-05-17T13:21:57.322Z,102552.59
2023-05-17T13:24:17.251Z,102555.06
2023-05-17T13:26:20.394Z,102550.50
2023-05-17T13:28:23.088Z,102549.63
2023-05-17T13:30:26.448Z,102547.84
2023-05-17T13:32:29.231Z,102552.22
2023-05-17T13:34:31.637Z,102553.00
2023-05-17T13:36:34.444Z,102553.94
2023-05-17T13:38:37.001Z,102551.13
2023-05-17T13:40:39.642Z,102546.97
2023-05-17T13:42:42.103Z,102549.66
2023-05-17T13:44:44.675Z,102547.25
2023-05-17T13:46:47.229Z,102546.53
2023-05-17T13:48:49.959Z,102548.44
2023-05-17T13:50:53.401Z,102548.75
2023-05-17T13:52:55.621Z,102550.47
2023-05-17T13:54:58.128Z,102546.16
2023-05-17T13:57:00.870Z,102541.91
2023-05-17T13:59:03.883Z,102542.09
2023-05-17T14:01:12.196Z,102538.75
2023-05-17T14:03:15.477Z,102537.28
2023-05-17T14:05:18.607Z,102539.19
2023-05-17T14:07:20.704Z,102530.50
2023-05-17T14:09:23.656Z,102530.50
2023-05-17T14:11:26.369Z,102525.50
2023-05-17T14:13:28.770Z,102522.06
2023-05-17T14:15:31.573Z,102521.16
2023-05-17T14:17:34.156Z,102522.94
2023-05-17T14:19:36.951Z,102520.31
2023-05-17T14:21:39.524Z,102522.00
2023-05-17T14:23:41.916Z,102529.84
2023-05-17T14:25:44.566Z,102528.06
2023-05-17T14:27:47.566Z,102530.50
2023-05-17T14:29:50.192Z,102528.75
2023-05-17T14:31:52.940Z,102527.78
2023-05-17T14:33:55.335Z,102530.41
2023-05-17T14:35:58.191Z,102533.72
2023-05-17T14:38:00.586Z,102534.66
2023-05-17T14:40:06.428Z,102533.59
2023-05-17T14:42:09.619Z,102534.56
2023-05-17T14:44:13.468Z,102532.81
2023-05-17T14:46:16.527Z,102529.41
2023-05-17T14:48:19.319Z,102523.31
2023-05-17T14:50:22.251Z,102518.13
2023-05-17T14:52:25.067Z,102518.06
2023-05-17T14:54:32.484Z,102519.97
2023-05-17T14:56:35.145Z,102516.53
2023-05-17T14:58:38.325Z,102513.09
2023-05-17T15:00:42.172Z,102510.59
2023-05-17T15:02:44.975Z,102512.34
2023-05-17T15:04:47.957Z,102500.16
2023-05-17T15:06:51.551Z,102495.81
2023-05-17T15:08:55.209Z,102501.94
2023-05-17T15:10:58.580Z,102498.41
2023-05-17T15:13:00.926Z,102495.78
2023-05-17T15:15:03.660Z,102505.41
2023-05-17T15:17:06.499Z,102493.13
2023-05-17T15:19:09.145Z,102493.97
2023-05-17T15:21:12.091Z,102499.13
2023-05-17T15:23:14.831Z,102488.50
2023-05-17T15:25:17.686Z,102486.13
2023-05-17T15:27:20.109Z,102485.28
2023-05-17T15:29:22.839Z,102487.03
2023-05-17T15:31:25.718Z,102496.66
2023-05-17T15:33:28.681Z,102488.84
2023-05-17T15:35:31.837Z,102494.84
2023-05-17T15:37:34.490Z,102495.75
2023-05-17T15:39:37.146Z,102502.69
2023-05-17T15:41:40.856Z,102502.59
2023-05-17T15:43:43.900Z,102502.59
2023-05-17T15:45:46.870Z,102507.66
2023-05-17T15:47:50.372Z,102502.41
2023-05-17T15:49:53.453Z,102505.00
2023-05-17T15:51:59.598Z,102510.00
2023-05-17T15:54:02.670Z,102516.88
2023-05-17T15:56:05.450Z,102516.69
2023-05-17T15:58:10.038Z,102510.53
2023-05-17T16:00:25.643Z,102518.34
2023-05-17T16:02:28.833Z,102518.19
2023-05-17T16:04:31.714Z,102514.16
2023-05-17T16:06:36.490Z,102517.78
2023-05-17T16:08:39.561Z,102515.09
2023-05-17T16:10:42.432Z,102521.97
2023-05-17T16:12:45.199Z,102520.13
2023-05-17T16:14:48.342Z,102520.00
2023-05-17T16:16:53.917Z,102524.22
2023-05-17T16:18:58.953Z,102527.00
2023-05-17T16:21:04.280Z,102527.84
2023-05-17T16:23:07.398Z,102520.13
2023-05-17T16:25:09.921Z,102519.00
2023-05-17T16:27:13.064Z,102513.47
2023-05-17T16:29:17.610Z,102521.53
2023-05-17T16:31:21.106Z,102518.13
2023-05-17T16:33:24.104Z,102510.69
2023-05-17T16:35:28.139Z,102515.81
2023-05-17T16:37:31.305Z,102510.84
2023-05-17T16:39:33.929Z,102513.47
2023-05-17T16:41:38.111Z,102509.91
2023-05-17T16:43:40.886Z,102505.50
2023-05-17T16:45:45.549Z,102517.72
2023-05-17T16:47:48.322Z,102511.03
2023-05-17T16:49:51.872Z,102513.88
2023-05-17T16:51:55.659Z,102512.94
2023-05-17T16:54:00.453Z,102508.34
2023-05-17T16:56:03.229Z,102508.25
2023-05-17T16:58:06.701Z,102510.09
2023-05-17T17:00:10.851Z,102506.34
2023-05-17T17:02:13.738Z,102506.47
2023-05-17T17:04:21.514Z,102511.53
2023-05-17T17:06:24.193Z,102519.13
2023-05-17T17:08:27.377Z,102518.38
2023-05-17T17:10:39.766Z,102518.22
2023-05-17T17:12:42.826Z,102524.97
2023-05-17T17:14:59.638Z,102524.13
2023-05-17T17:17:20.277Z,102525.69
2023-05-17T17:19:38.435Z,102537.81
2023-05-17T17:21:43.314Z,102530.19
2023-05-17T17:24:15.214Z,102530.53
2023-05-17T17:26:24.382Z,102526.25
2023-05-17T17:28:27.524Z,102529.81
2023-05-17T17:30:42.352Z,102535.00
2023-05-17T17:32:45.120Z,102528.75
2023-05-17T17:34:48.157Z,102536.56
2023-05-17T17:36:51.380Z,102534.56
2023-05-17T17:38:53.136Z,102541.66
2023-05-17T17:40:55.829Z,102539.41
2023-05-17T17:42:58.571Z,102540.34
2023-05-17T17:45:17.851Z,102549.38
2023-05-17T17:47:30.406Z,102545.66
2023-05-17T17:49:33.703Z,102553.38
2023-05-17T17:51:36.419Z,102559.22
2023-05-17T17:53:49.178Z,102557.91
2023-05-17T17:55:52.079Z,102556.63
2023-05-17T17:57:54.698Z,102554.13
2023-05-17T17:59:58.474Z,102560.13
2023-05-17T18:02:01.757Z,102559.53
2023-05-17T18:04:06.552Z,102553.25
2023-05-17T18:06:08.927Z,102564.25
2023-05-17T18:08:11.159Z,102562.25
2023-05-17T18:10:13.808Z,102563.19
2023-05-17T18:12:16.801Z,102558.81
2023-05-17T18:14:19.986Z,102558.16
2023-05-17T18:16:22.335Z,102558.41
2023-05-17T18:18:24.862Z,102562.19
2023-05-17T18:20:27.627Z,102560.50
2023-05-17T18:22:30.386Z,102566.03
2023-05-17T18:24:32.914Z,102560.00
2023-05-17T18:26:35.588Z,102560.06
2023-05-17T18:28:42.262Z,102566.88
2023-05-17T18:30:45.546Z,102564.41
2023-05-17T18:32:47.936Z,102564.56
2023-05-17T18:34:50.214Z,102558.59
2023-05-17T18:36:52.377Z,102557.50
2023-05-17T18:38:58.766Z,102572.72
2023-05-17T18:41:01.179Z,102563.34
2023-05-17T18:43:03.412Z,102566.06
2023-05-17T18:45:06.855Z,102569.53
2023-05-17T18:47:09.234Z,102570.13
2023-05-17T18:49:12.681Z,102571.53
2023-05-17T18:51:16.227Z,102572.59
2023-05-17T18:53:18.777Z,102574.13
2023-05-17T18:55:21.740Z,102571.59
2023-05-17T18:57:24.234Z,102569.13
2023-05-17T18:59:26.692Z,102575.63
2023-05-17T19:01:29.449Z,102575.44
2023-05-17T19:03:32.221Z,102578.09
2023-05-17T19:05:34.499Z,102576.28
2023-05-17T19:07:36.947Z,102575.44
2023-05-17T19:09:39.106Z,102573.84
2023-05-17T19:11:41.494Z,102581.22
2023-05-17T19:13:44.225Z,102571.06
2023-05-17T19:15:46.488Z,102571.47
2023-05-17T19:17:48.828Z,102572.22
2023-05-17T19:19:51.333Z,102573.84
2023-05-17T19:21:53.894Z,102579.88
2023-05-17T19:23:58.640Z,102573.56
2023-05-17T19:26:01.022Z,102579.50
2023-05-17T19:28:03.439Z,102587.50
2023-05-17T19:30:07.903Z,102587.00
2023-05-17T19:32:10.264Z,102590.19
2023-05-17T19:34:12.729Z,102587.91
2023-05-17T19:36:15.224Z,102582.50
2023-05-17T19:38:18.362Z,102585.25
2023-05-17T19:40:22.494Z,102579.16
2023-05-17T19:42:25.128Z,102584.19
2023-05-17T19:44:27.415Z,102591.16
2023-05-17T19:46:29.646Z,102588.44
2023-05-17T19:48:42.622Z,102593.56
2023-05-17T19:50:44.847Z,102585.28
2023-05-17T19:52:47.756Z,102593.84
2023-05-17T19:54:50.032Z,102590.13
2023-05-17T19:56:52.205Z,102593.09
2023-05-17T19:58:54.483Z,102594.84
2023-05-17T20:00:56.847Z,102598.09
2023-05-17T20:02:59.199Z,102598.78
2023-05-17T20:05:03.830Z,102598.69
2023-05-17T20:07:06.396Z,102605.88
2023-05-17T20:09:08.596Z,102605.66
2023-05-17T20:11:11.565Z,102609.47
2023-05-17T20:13:13.857Z,102603.00
2023-05-17T20:15:16.503Z,102608.44
2023-05-17T20:17:19.908Z,102607.00
2023-05-17T20:19:22.220Z,102617.88
2023-05-17T20:21:26.698Z,102617.13
2023-05-17T20:23:29.039Z,102617.47
2023-05-17T20:25:31.410Z,102604.75
2023-05-17T20:27:33.757Z,102614.84
2023-05-17T20:29:36.340Z,102616.88
2023-05-17T20:31:38.860Z,102618.50
2023-05-17T20:33:41.567Z,102618.81
2023-05-17T20:35:43.964Z,102617.91
2023-05-17T20:37:46.138Z,102621.06
2023-05-17T20:39:48.430Z,102615.13
2023-05-17T20:41:50.661Z,102619.88
2023-05-17T20:43:53.543Z,102620.41
2023-05-17T20:45:55.915Z,102614.47
2023-05-17T20:47:58.249Z,102616.09
2023-05-17T20:50:00.547Z,102615.84
2023-05-17T20:52:03.620Z,102611.91
2023-05-17T20:54:06.537Z,102619.00
2023-05-17T20:56:08.804Z,102624.31
2023-05-17T20:58:11.579Z,102621.13
2023-05-17T21:00:17.343Z,102632.50
2023-05-17T21:02:20.112Z,102623.38
2023-05-17T21:04:22.457Z,102619.97
2023-05-17T21:06:27.413Z,102618.19
2023-05-17T21:08:29.570Z,102619.13
2023-05-17T21:10:32.121Z,102622.78
2023-05-17T21:12:35.803Z,102620.84
2023-05-17T21:14:38.000Z,102620.84
2023-05-17T21:16:40.312Z,102630.25
2023-05-17T21:18:45.049Z,102625.59
2023-05-17T21:20:47.752Z,102622.38
2023-05-17T21:22:49.971Z,102625.78
2023-05-17T21:24:52.878Z,102627.00
2023-05-17T21:26:55.231Z,102625.16
2023-05-17T21:28:57.404Z,102629.66
2023-05-17T21:30:59.886Z,102628.19
2023-05-17T21:33:02.439Z,102633.28
2023-05-17T21:35:05.032Z,102632.72
2023-05-17T21:37:07.162Z,102626.03
2023-05-17T21:39:09.319Z,102630.38
2023-05-17T21:41:11.568Z,102627.09
2023-05-17T21:43:13.631Z,102625.53
2023-05-17T21:45:15.691Z,102625.31
2023-05-17T21:47:20.724Z,102624.69
2023-05-17T21:49:22.928Z,102618.16
2023-05-17T21:51:25.092Z,102623.97
2023-05-17T21:53:27.228Z,102627.78
2023-05-17T21:55:40.837Z,102627.78
2023-05-17T21:57:51.351Z,102625.19
2023-05-17T21:59:53.562Z,102618.34
2023-05-17T22:01:55.814Z,102618.00
2023-05-17T22:04:01.305Z,102612.66
2023-05-17T22:06:04.301Z,102616.63
2023-05-17T22:08:06.553Z,102611.22
2023-05-17T22:10:10.024Z,102608.63
2023-05-17T22:12:12.467Z,102616.19
2023-05-17T22:14:14.576Z,102609.66
2023-05-17T22:16:17.188Z,102605.72
2023-05-17T22:18:19.641Z,102607.63
2023-05-17T22:20:23.994Z,102608.59
2023-05-17T22:22:27.005Z,102605.47
2023-05-17T22:24:29.181Z,102601.84
2023-05-17T22:26:31.489Z,102603.84
2023-05-17T22:28:34.035Z,102606.34
2023-05-17T22:30:36.459Z,102606.88
2023-05-17T22:32:38.726Z,102607.78
2023-05-17T22:34:41.293Z,102608.50
2023-05-17T22:36:43.648Z,102617.44
2023-05-17T22:38:46.545Z,102607.72
2023-05-17T22:40:48.538Z,102606.06
2023-05-17T22:42:52.094Z,102605.00
2023-05-17T22:44:54.121Z,102606.88
2023-05-17T22:46:57.895Z,102612.13
2023-05-17T22:48:59.994Z,102615.88
2023-05-17T22:51:02.334Z,102615.06
2023-05-17T22:53:06.126Z,102620.19
2023-05-17T22:55:09.294Z,102617.09
2023-05-17T22:57:11.636Z,102614.00
2023-05-17T22:59:13.727Z,102608.38
2023-05-17T23:01:15.933Z,102618.31
2023-05-17T23:03:19.713Z,102617.72
2023-05-17T23:05:22.407Z,102615.16
2023-05-17T23:07:24.478Z,102614.22
2023-05-17T23:09:27.470Z,102623.25
2023-05-17T23:11:30.078Z,102614.31
2023-05-17T23:13:32.164Z,102616.88
2023-05-17T23:15:34.597Z,102615.50
2023-05-17T23:17:36.790Z,102619.00
2023-05-17T23:19:40.689Z,102619.06
2023-05-17T23:21:43.444Z,102619.59
2023-05-17T23:23:45.530Z,102618.91
2023-05-17T23:25:48.796Z,102621.25
2023-05-17T23:27:51.065Z,102616.97
2023-05-17T23:29:54.266Z,102617.72
2023-05-17T23:31:56.423Z,102615.78
2023-05-17T23:33:58.446Z,102623.38
2023-05-17T23:36:00.704Z,102625.19